sensor_id;sensor_type;location;lat;lon;timestamp;P1;durP1;ratioP1;P2;durP2;ratioP2
3311;SDS011;1668;49.648;8.570;2023-02-10T00:01:01;33.27;;;18.70;;
3311;SDS011;1668;49.648;8.570;2023-02-10T00:03:28;34.37;;;19.13;;
3311;SDS011;1668;49.648;8.570;2023-02-10T00:05:55;41.27;;;19.47;;
3311;SDS011;1668;49.648;8.570;2023-02-10T00:08:24;32.40;;;18.40;;
3311;SDS011;1668;49.648;8.570;2023-02-10T00:10:51;36.73;;;18.17;;
3311;SDS011;1668;49.648;8.570;2023-02-10T00:13:18;32.90;;;18.77;;
3311;SDS011;1668;49.648;8.570;2023-02-10T00:15:45;37.00;;;20.20;;
3311;SDS011;1668;49.648;8.570;2023-02-10T00:18:11;36.47;;;19.83;;
3311;SDS011;1668;49.648;8.570;2023-02-10T00:20:38;35.77;;;20.53;;
3311;SDS011;1668;49.648;8.570;2023-02-10T00:23:05;36.27;;;19.83;;
3311;SDS011;1668;49.648;8.570;2023-02-10T00:25:34;31.67;;;19.07;;
3311;SDS011;1668;49.648;8.570;2023-02-10T00:28:01;37.30;;;20.00;;
3311;SDS011;1668;49.648;8.570;2023-02-10T00:30:28;38.17;;;20.70;;
3311;SDS011;1668;49.648;8.570;2023-02-10T00:32:57;40.53;;;19.80;;
3311;SDS011;1668;49.648;8.570;2023-02-10T00:35:24;35.83;;;20.23;;
3311;SDS011;1668;49.648;8.570;2023-02-10T00:37:51;37.53;;;19.47;;
3311;SDS011;1668;49.648;8.570;2023-02-10T00:40:18;36.73;;;18.73;;
3311;SDS011;1668;49.648;8.570;2023-02-10T00:42:46;35.83;;;19.90;;
3311;SDS011;1668;49.648;8.570;2023-02-10T00:45:13;37.53;;;19.50;;
3311;SDS011;1668;49.648;8.570;2023-02-10T00:47:40;36.83;;;19.13;;
3311;SDS011;1668;49.648;8.570;2023-02-10T00:50:07;33.60;;;18.50;;
3311;SDS011;1668;49.648;8.570;2023-02-10T00:52:34;32.40;;;17.90;;
3311;SDS011;1668;49.648;8.570;2023-02-10T00:55:03;37.47;;;19.37;;
3311;SDS011;1668;49.648;8.570;2023-02-10T00:57:30;34.50;;;18.63;;
3311;SDS011;1668;49.648;8.570;2023-02-10T00:59:58;34.57;;;18.33;;
3311;SDS011;1668;49.648;8.570;2023-02-10T01:02:25;35.27;;;19.00;;
3311;SDS011;1668;49.648;8.570;2023-02-10T01:04:52;33.93;;;19.03;;
3311;SDS011;1668;49.648;8.570;2023-02-10T01:07:19;37.83;;;19.00;;
3311;SDS011;1668;49.648;8.570;2023-02-10T01:09:46;34.97;;;18.13;;
3311;SDS011;1668;49.648;8.570;2023-02-10T01:12:13;32.07;;;17.93;;
3311;SDS011;1668;49.648;8.570;2023-02-10T01:14:40;32.50;;;18.67;;
3311;SDS011;1668;49.648;8.570;2023-02-10T01:17:08;34.30;;;18.70;;
3311;SDS011;1668;49.648;8.570;2023-02-10T01:19:35;37.57;;;18.37;;
3311;SDS011;1668;49.648;8.570;2023-02-10T01:22:02;33.40;;;19.07;;
3311;SDS011;1668;49.648;8.570;2023-02-10T01:24:29;35.00;;;18.73;;
3311;SDS011;1668;49.648;8.570;2023-02-10T01:26:57;35.53;;;18.80;;
3311;SDS011;1668;49.648;8.570;2023-02-10T01:29:24;30.03;;;16.90;;
3311;SDS011;1668;49.648;8.570;2023-02-10T01:31:51;36.30;;;19.23;;
3311;SDS011;1668;49.648;8.570;2023-02-10T01:34:19;26.70;;;16.63;;
3311;SDS011;1668;49.648;8.570;2023-02-10T01:36:46;33.40;;;18.00;;
3311;SDS011;1668;49.648;8.570;2023-02-10T01:39:12;32.30;;;17.30;;
3311;SDS011;1668;49.648;8.570;2023-02-10T01:41:39;28.07;;;16.83;;
3311;SDS011;1668;49.648;8.570;2023-02-10T01:44:58;32.30;;;17.63;;
3311;SDS011;1668;49.648;8.570;2023-02-10T01:47:12;37.90;;;19.10;;
3311;SDS011;1668;49.648;8.570;2023-02-10T01:49:41;38.77;;;19.87;;
3311;SDS011;1668;49.648;8.570;2023-02-10T01:52:11;36.27;;;19.37;;
3311;SDS011;1668;49.648;8.570;2023-02-10T01:54:41;33.27;;;18.90;;
3311;SDS011;1668;49.648;8.570;2023-02-10T01:57:11;35.63;;;18.10;;
3311;SDS011;1668;49.648;8.570;2023-02-10T01:59:38;35.97;;;18.90;;
3311;SDS011;1668;49.648;8.570;2023-02-10T02:02:07;36.57;;;18.70;;
3311;SDS011;1668;49.648;8.570;2023-02-10T02:04:36;36.07;;;18.57;;
3311;SDS011;1668;49.648;8.570;2023-02-10T02:07:07;33.93;;;17.60;;
3311;SDS011;1668;49.648;8.570;2023-02-10T02:09:34;33.80;;;17.43;;
3311;SDS011;1668;49.648;8.570;2023-02-10T02:12:02;34.23;;;18.97;;
3311;SDS011;1668;49.648;8.570;2023-02-10T02:14:36;34.27;;;18.67;;
3311;SDS011;1668;49.648;8.570;2023-02-10T02:17:12;34.47;;;17.63;;
3311;SDS011;1668;49.648;8.570;2023-02-10T02:20:08;41.13;;;19.97;;
3311;SDS011;1668;49.648;8.570;2023-02-10T02:23:19;35.60;;;18.10;;
3311;SDS011;1668;49.648;8.570;2023-02-10T02:26:12;34.10;;;18.53;;
3311;SDS011;1668;49.648;8.570;2023-02-10T02:29:15;39.53;;;18.20;;
3311;SDS011;1668;49.648;8.570;2023-02-10T02:32:00;34.00;;;17.07;;
3311;SDS011;1668;49.648;8.570;2023-02-10T02:34:33;32.63;;;17.77;;
3311;SDS011;1668;49.648;8.570;2023-02-10T02:37:07;35.57;;;18.47;;
3311;SDS011;1668;49.648;8.570;2023-02-10T02:39:37;32.00;;;17.70;;
3311;SDS011;1668;49.648;8.570;2023-02-10T02:42:12;37.87;;;19.00;;
3311;SDS011;1668;49.648;8.570;2023-02-10T02:44:42;33.60;;;18.80;;
3311;SDS011;1668;49.648;8.570;2023-02-10T02:47:13;36.00;;;19.30;;
3311;SDS011;1668;49.648;8.570;2023-02-10T02:49:48;36.07;;;19.07;;
3311;SDS011;1668;49.648;8.570;2023-02-10T02:52:26;34.13;;;18.17;;
3311;SDS011;1668;49.648;8.570;2023-02-10T02:55:05;34.10;;;18.67;;
3311;SDS011;1668;49.648;8.570;2023-02-10T02:57:40;38.50;;;19.00;;
3311;SDS011;1668;49.648;8.570;2023-02-10T03:00:12;31.00;;;17.87;;
3311;SDS011;1668;49.648;8.570;2023-02-10T03:02:45;31.70;;;18.30;;
3311;SDS011;1668;49.648;8.570;2023-02-10T03:05:16;33.90;;;17.93;;
3311;SDS011;1668;49.648;8.570;2023-02-10T03:07:45;36.90;;;17.57;;
3311;SDS011;1668;49.648;8.570;2023-02-10T03:10:12;32.73;;;18.40;;
3311;SDS011;1668;49.648;8.570;2023-02-10T03:12:39;36.17;;;18.90;;
3311;SDS011;1668;49.648;8.570;2023-02-10T03:15:06;35.50;;;18.80;;
3311;SDS011;1668;49.648;8.570;2023-02-10T03:17:33;34.77;;;18.10;;
3311;SDS011;1668;49.648;8.570;2023-02-10T03:20:02;35.83;;;19.40;;
3311;SDS011;1668;49.648;8.570;2023-02-10T03:22:29;32.60;;;17.87;;
3311;SDS011;1668;49.648;8.570;2023-02-10T03:24:56;29.23;;;17.17;;
3311;SDS011;1668;49.648;8.570;2023-02-10T03:27:22;39.53;;;18.53;;
3311;SDS011;1668;49.648;8.570;2023-02-10T03:29:49;34.60;;;18.70;;
3311;SDS011;1668;49.648;8.570;2023-02-10T03:32:17;31.27;;;18.40;;
3311;SDS011;1668;49.648;8.570;2023-02-10T03:34:45;31.93;;;17.23;;
3311;SDS011;1668;49.648;8.570;2023-02-10T03:37:13;35.40;;;18.47;;
3311;SDS011;1668;49.648;8.570;2023-02-10T03:39:40;31.80;;;17.60;;
3311;SDS011;1668;49.648;8.570;2023-02-10T03:42:07;28.43;;;16.60;;
3311;SDS011;1668;49.648;8.570;2023-02-10T03:44:34;36.03;;;17.40;;
3311;SDS011;1668;49.648;8.570;2023-02-10T03:47:02;33.57;;;18.27;;
3311;SDS011;1668;49.648;8.570;2023-02-10T03:49:29;30.93;;;17.33;;
3311;SDS011;1668;49.648;8.570;2023-02-10T03:51:55;34.60;;;17.57;;
3311;SDS011;1668;49.648;8.570;2023-02-10T03:54:24;33.30;;;19.70;;
3311;SDS011;1668;49.648;8.570;2023-02-10T03:56:50;38.67;;;19.50;;
3311;SDS011;1668;49.648;8.570;2023-02-10T03:59:17;31.27;;;18.07;;
3311;SDS011;1668;49.648;8.570;2023-02-10T04:01:44;33.57;;;17.90;;
3311;SDS011;1668;49.648;8.570;2023-02-10T04:04:11;34.17;;;18.50;;
3311;SDS011;1668;49.648;8.570;2023-02-10T04:06:38;34.10;;;17.60;;
3311;SDS011;1668;49.648;8.570;2023-02-10T04:09:05;33.63;;;17.33;;
3311;SDS011;1668;49.648;8.570;2023-02-10T04:11:33;35.20;;;18.67;;
3311;SDS011;1668;49.648;8.570;2023-02-10T04:14:00;34.67;;;19.63;;
3311;SDS011;1668;49.648;8.570;2023-02-10T04:16:27;33.33;;;19.20;;
3311;SDS011;1668;49.648;8.570;2023-02-10T04:18:55;34.20;;;18.30;;
3311;SDS011;1668;49.648;8.570;2023-02-10T04:21:21;34.63;;;20.20;;
3311;SDS011;1668;49.648;8.570;2023-02-10T04:23:49;39.80;;;20.03;;
3311;SDS011;1668;49.648;8.570;2023-02-10T04:26:16;42.00;;;21.33;;
3311;SDS011;1668;49.648;8.570;2023-02-10T04:28:44;40.03;;;20.63;;
3311;SDS011;1668;49.648;8.570;2023-02-10T04:31:11;36.80;;;20.23;;
3311;SDS011;1668;49.648;8.570;2023-02-10T04:33:38;39.80;;;20.67;;
3311;SDS011;1668;49.648;8.570;2023-02-10T04:36:05;37.60;;;19.87;;
3311;SDS011;1668;49.648;8.570;2023-02-10T04:38:33;40.67;;;20.33;;
3311;SDS011;1668;49.648;8.570;2023-02-10T04:41:00;35.70;;;19.87;;
3311;SDS011;1668;49.648;8.570;2023-02-10T04:43:28;33.50;;;19.07;;
3311;SDS011;1668;49.648;8.570;2023-02-10T04:45:56;35.97;;;19.60;;
3311;SDS011;1668;49.648;8.570;2023-02-10T04:48:23;39.33;;;19.43;;
3311;SDS011;1668;49.648;8.570;2023-02-10T04:50:49;30.73;;;17.57;;
3311;SDS011;1668;49.648;8.570;2023-02-10T04:53:17;35.30;;;19.47;;
3311;SDS011;1668;49.648;8.570;2023-02-10T04:55:44;40.03;;;20.57;;
3311;SDS011;1668;49.648;8.570;2023-02-10T04:58:11;36.80;;;19.90;;
3311;SDS011;1668;49.648;8.570;2023-02-10T05:00:37;40.03;;;19.30;;
3311;SDS011;1668;49.648;8.570;2023-02-10T05:03:06;37.80;;;19.43;;
3311;SDS011;1668;49.648;8.570;2023-02-10T05:05:32;38.33;;;20.30;;
3311;SDS011;1668;49.648;8.570;2023-02-10T05:07:59;34.93;;;19.20;;
3311;SDS011;1668;49.648;8.570;2023-02-10T05:10:26;36.87;;;19.50;;
3311;SDS011;1668;49.648;8.570;2023-02-10T05:12:53;34.90;;;18.90;;
3311;SDS011;1668;49.648;8.570;2023-02-10T05:15:20;37.03;;;19.60;;
3311;SDS011;1668;49.648;8.570;2023-02-10T05:17:46;36.13;;;20.50;;
3311;SDS011;1668;49.648;8.570;2023-02-10T05:22:43;36.03;;;20.50;;
3311;SDS011;1668;49.648;8.570;2023-02-10T05:25:09;36.20;;;20.53;;
3311;SDS011;1668;49.648;8.570;2023-02-10T05:27:36;40.90;;;24.33;;
3311;SDS011;1668;49.648;8.570;2023-02-10T05:30:04;41.30;;;22.03;;
3311;SDS011;1668;49.648;8.570;2023-02-10T05:32:34;38.37;;;22.37;;
3311;SDS011;1668;49.648;8.570;2023-02-10T05:35:01;42.63;;;22.10;;
3311;SDS011;1668;49.648;8.570;2023-02-10T05:37:29;35.60;;;21.23;;
3311;SDS011;1668;49.648;8.570;2023-02-10T05:39:56;42.03;;;20.87;;
3311;SDS011;1668;49.648;8.570;2023-02-10T05:42:23;34.03;;;20.10;;
3311;SDS011;1668;49.648;8.570;2023-02-10T05:44:50;34.27;;;19.40;;
3311;SDS011;1668;49.648;8.570;2023-02-10T05:47:17;39.23;;;21.03;;
3311;SDS011;1668;49.648;8.570;2023-02-10T05:49:43;45.57;;;20.17;;
3311;SDS011;1668;49.648;8.570;2023-02-10T05:52:10;35.03;;;19.27;;
3311;SDS011;1668;49.648;8.570;2023-02-10T05:54:39;36.87;;;19.47;;
3311;SDS011;1668;49.648;8.570;2023-02-10T05:57:06;42.20;;;21.50;;
3311;SDS011;1668;49.648;8.570;2023-02-10T05:59:33;35.27;;;19.40;;
3311;SDS011;1668;49.648;8.570;2023-02-10T06:02:00;36.30;;;20.67;;
3311;SDS011;1668;49.648;8.570;2023-02-10T06:04:27;42.17;;;21.07;;
3311;SDS011;1668;49.648;8.570;2023-02-10T06:06:54;35.93;;;20.40;;
3311;SDS011;1668;49.648;8.570;2023-02-10T06:09:21;37.80;;;21.47;;
3311;SDS011;1668;49.648;8.570;2023-02-10T06:11:50;39.63;;;21.30;;
3311;SDS011;1668;49.648;8.570;2023-02-10T06:14:17;41.80;;;23.20;;
3311;SDS011;1668;49.648;8.570;2023-02-10T06:16:44;42.27;;;22.77;;
3311;SDS011;1668;49.648;8.570;2023-02-10T06:19:10;42.70;;;22.23;;
3311;SDS011;1668;49.648;8.570;2023-02-10T06:21:37;41.90;;;21.83;;
3311;SDS011;1668;49.648;8.570;2023-02-10T06:24:04;38.73;;;21.47;;
3311;SDS011;1668;49.648;8.570;2023-02-10T06:26:31;42.43;;;23.73;;
3311;SDS011;1668;49.648;8.570;2023-02-10T06:28:59;39.70;;;21.60;;
3311;SDS011;1668;49.648;8.570;2023-02-10T06:31:26;34.97;;;20.27;;
3311;SDS011;1668;49.648;8.570;2023-02-10T06:33:53;38.37;;;20.17;;
3311;SDS011;1668;49.648;8.570;2023-02-10T06:36:20;43.27;;;21.57;;
3311;SDS011;1668;49.648;8.570;2023-02-10T06:38:47;42.83;;;21.57;;
3311;SDS011;1668;49.648;8.570;2023-02-10T06:41:14;47.40;;;24.30;;
3311;SDS011;1668;49.648;8.570;2023-02-10T06:43:41;43.70;;;22.90;;
3311;SDS011;1668;49.648;8.570;2023-02-10T06:46:10;37.83;;;20.10;;
3311;SDS011;1668;49.648;8.570;2023-02-10T06:48:38;45.23;;;20.90;;
3311;SDS011;1668;49.648;8.570;2023-02-10T06:51:05;34.13;;;19.27;;
3311;SDS011;1668;49.648;8.570;2023-02-10T06:53:32;36.80;;;19.53;;
3311;SDS011;1668;49.648;8.570;2023-02-10T06:55:59;35.67;;;19.33;;
3311;SDS011;1668;49.648;8.570;2023-02-10T06:58:25;34.20;;;18.20;;
3311;SDS011;1668;49.648;8.570;2023-02-10T07:00:53;30.50;;;18.03;;
3311;SDS011;1668;49.648;8.570;2023-02-10T07:03:21;37.37;;;19.43;;
3311;SDS011;1668;49.648;8.570;2023-02-10T07:05:48;32.80;;;18.80;;
3311;SDS011;1668;49.648;8.570;2023-02-10T07:08:16;37.73;;;19.77;;
3311;SDS011;1668;49.648;8.570;2023-02-10T07:10:42;38.63;;;20.50;;
3311;SDS011;1668;49.648;8.570;2023-02-10T07:13:09;33.70;;;19.00;;
3311;SDS011;1668;49.648;8.570;2023-02-10T07:15:36;37.03;;;18.60;;
3311;SDS011;1668;49.648;8.570;2023-02-10T07:18:03;34.77;;;19.00;;
3311;SDS011;1668;49.648;8.570;2023-02-10T07:20:32;35.23;;;18.87;;
3311;SDS011;1668;49.648;8.570;2023-02-10T07:22:59;35.40;;;19.53;;
3311;SDS011;1668;49.648;8.570;2023-02-10T07:25:26;31.70;;;19.10;;
3311;SDS011;1668;49.648;8.570;2023-02-10T07:27:53;34.80;;;19.00;;
3311;SDS011;1668;49.648;8.570;2023-02-10T07:30:20;40.90;;;18.53;;
3311;SDS011;1668;49.648;8.570;2023-02-10T07:32:47;33.83;;;18.07;;
3311;SDS011;1668;49.648;8.570;2023-02-10T07:35:13;33.67;;;18.43;;
3311;SDS011;1668;49.648;8.570;2023-02-10T07:37:42;33.57;;;19.10;;
3311;SDS011;1668;49.648;8.570;2023-02-10T07:40:09;38.60;;;20.43;;
3311;SDS011;1668;49.648;8.570;2023-02-10T07:42:36;40.47;;;20.70;;
3311;SDS011;1668;49.648;8.570;2023-02-10T07:45:04;42.23;;;21.00;;
3311;SDS011;1668;49.648;8.570;2023-02-10T07:47:31;37.80;;;21.40;;
3311;SDS011;1668;49.648;8.570;2023-02-10T07:49:57;43.03;;;21.60;;
3311;SDS011;1668;49.648;8.570;2023-02-10T07:52:24;37.30;;;20.03;;
3311;SDS011;1668;49.648;8.570;2023-02-10T07:54:52;36.73;;;20.03;;
3311;SDS011;1668;49.648;8.570;2023-02-10T07:57:20;43.03;;;21.30;;
3311;SDS011;1668;49.648;8.570;2023-02-10T07:59:47;41.73;;;21.40;;
3311;SDS011;1668;49.648;8.570;2023-02-10T08:02:14;38.17;;;20.80;;
3311;SDS011;1668;49.648;8.570;2023-02-10T08:04:41;38.40;;;20.97;;
3311;SDS011;1668;49.648;8.570;2023-02-10T08:07:08;43.53;;;21.17;;
3311;SDS011;1668;49.648;8.570;2023-02-10T08:09:35;39.43;;;21.80;;
3311;SDS011;1668;49.648;8.570;2023-02-10T08:12:04;37.53;;;22.13;;
3311;SDS011;1668;49.648;8.570;2023-02-10T08:14:31;39.60;;;21.83;;
3311;SDS011;1668;49.648;8.570;2023-02-10T08:16:58;36.90;;;22.37;;
3311;SDS011;1668;49.648;8.570;2023-02-10T08:19:25;37.80;;;21.40;;
3311;SDS011;1668;49.648;8.570;2023-02-10T08:21:52;44.13;;;23.40;;
3311;SDS011;1668;49.648;8.570;2023-02-10T08:24:19;43.80;;;23.93;;
3311;SDS011;1668;49.648;8.570;2023-02-10T08:26:45;45.93;;;23.43;;
3311;SDS011;1668;49.648;8.570;2023-02-10T08:29:14;40.07;;;24.53;;
3311;SDS011;1668;49.648;8.570;2023-02-10T08:31:41;45.10;;;23.07;;
3311;SDS011;1668;49.648;8.570;2023-02-10T08:34:12;39.40;;;23.87;;
3311;SDS011;1668;49.648;8.570;2023-02-10T08:36:41;37.53;;;23.00;;
3311;SDS011;1668;49.648;8.570;2023-02-10T08:39:08;39.07;;;21.97;;
3311;SDS011;1668;49.648;8.570;2023-02-10T08:41:35;44.13;;;23.43;;
3311;SDS011;1668;49.648;8.570;2023-02-10T08:44:03;43.53;;;23.77;;
3311;SDS011;1668;49.648;8.570;2023-02-10T08:46:31;38.83;;;21.80;;
3311;SDS011;1668;49.648;8.570;2023-02-10T08:48:58;40.83;;;23.87;;
3311;SDS011;1668;49.648;8.570;2023-02-10T08:51:26;40.83;;;22.73;;
3311;SDS011;1668;49.648;8.570;2023-02-10T08:53:53;40.00;;;22.57;;
3311;SDS011;1668;49.648;8.570;2023-02-10T08:56:21;46.80;;;24.10;;
3311;SDS011;1668;49.648;8.570;2023-02-10T08:58:48;39.00;;;22.03;;
3311;SDS011;1668;49.648;8.570;2023-02-10T09:01:17;43.10;;;23.80;;
3311;SDS011;1668;49.648;8.570;2023-02-10T09:03:46;43.47;;;24.97;;
3311;SDS011;1668;49.648;8.570;2023-02-10T09:06:14;40.80;;;23.13;;
3311;SDS011;1668;49.648;8.570;2023-02-10T09:08:43;43.07;;;23.47;;
3311;SDS011;1668;49.648;8.570;2023-02-10T09:11:12;44.63;;;24.73;;
3311;SDS011;1668;49.648;8.570;2023-02-10T09:13:39;43.87;;;24.67;;
3311;SDS011;1668;49.648;8.570;2023-02-10T09:16:30;40.50;;;23.90;;
3311;SDS011;1668;49.648;8.570;2023-02-10T09:18:59;39.67;;;23.47;;
3311;SDS011;1668;49.648;8.570;2023-02-10T09:21:30;39.70;;;22.83;;
3311;SDS011;1668;49.648;8.570;2023-02-10T09:23:57;52.23;;;24.93;;
3311;SDS011;1668;49.648;8.570;2023-02-10T09:26:24;44.63;;;25.60;;
3311;SDS011;1668;49.648;8.570;2023-02-10T09:28:51;44.10;;;27.00;;
3311;SDS011;1668;49.648;8.570;2023-02-10T09:31:18;49.03;;;26.53;;
3311;SDS011;1668;49.648;8.570;2023-02-10T09:33:45;48.23;;;25.80;;
3311;SDS011;1668;49.648;8.570;2023-02-10T09:36:14;42.73;;;24.57;;
3311;SDS011;1668;49.648;8.570;2023-02-10T09:38:43;50.70;;;24.47;;
3311;SDS011;1668;49.648;8.570;2023-02-10T09:41:12;44.87;;;25.27;;
3311;SDS011;1668;49.648;8.570;2023-02-10T09:44:05;42.67;;;24.60;;
3311;SDS011;1668;49.648;8.570;2023-02-10T09:46:59;41.40;;;25.50;;
3311;SDS011;1668;49.648;8.570;2023-02-10T09:50:18;42.37;;;24.50;;
3311;SDS011;1668;49.648;8.570;2023-02-10T09:53:21;42.30;;;24.70;;
3311;SDS011;1668;49.648;8.570;2023-02-10T09:56:12;43.53;;;25.30;;
3311;SDS011;1668;49.648;8.570;2023-02-10T09:59:02;44.73;;;25.43;;
3311;SDS011;1668;49.648;8.570;2023-02-10T10:01:51;41.80;;;25.90;;
3311;SDS011;1668;49.648;8.570;2023-02-10T10:04:21;41.23;;;24.30;;
3311;SDS011;1668;49.648;8.570;2023-02-10T10:06:49;43.87;;;25.03;;
3311;SDS011;1668;49.648;8.570;2023-02-10T10:09:23;54.43;;;27.30;;
3311;SDS011;1668;49.648;8.570;2023-02-10T10:11:58;44.77;;;26.70;;
3311;SDS011;1668;49.648;8.570;2023-02-10T10:14:26;43.67;;;26.17;;
3311;SDS011;1668;49.648;8.570;2023-02-10T10:17:05;46.20;;;26.30;;
3311;SDS011;1668;49.648;8.570;2023-02-10T10:19:49;46.23;;;26.20;;
3311;SDS011;1668;49.648;8.570;2023-02-10T10:22:36;45.67;;;26.13;;
3311;SDS011;1668;49.648;8.570;2023-02-10T10:25:29;44.60;;;26.00;;
3311;SDS011;1668;49.648;8.570;2023-02-10T10:28:15;44.97;;;25.33;;
3311;SDS011;1668;49.648;8.570;2023-02-10T10:30:48;37.07;;;24.30;;
3311;SDS011;1668;49.648;8.570;2023-02-10T10:33:22;42.20;;;24.20;;
3311;SDS011;1668;49.648;8.570;2023-02-10T10:35:50;41.40;;;25.50;;
3311;SDS011;1668;49.648;8.570;2023-02-10T10:38:21;43.00;;;25.00;;
3311;SDS011;1668;49.648;8.570;2023-02-10T10:40:53;42.67;;;24.50;;
3311;SDS011;1668;49.648;8.570;2023-02-10T10:43:24;38.40;;;24.07;;
3311;SDS011;1668;49.648;8.570;2023-02-10T10:45:54;44.80;;;24.33;;
3311;SDS011;1668;49.648;8.570;2023-02-10T10:48:26;39.07;;;23.30;;
3311;SDS011;1668;49.648;8.570;2023-02-10T10:50:57;46.50;;;25.90;;
3311;SDS011;1668;49.648;8.570;2023-02-10T10:53:30;41.23;;;24.47;;
3311;SDS011;1668;49.648;8.570;2023-02-10T10:56:08;40.97;;;24.50;;
3311;SDS011;1668;49.648;8.570;2023-02-10T10:58:42;49.23;;;24.90;;
3311;SDS011;1668;49.648;8.570;2023-02-10T11:01:10;45.23;;;27.13;;
3311;SDS011;1668;49.648;8.570;2023-02-10T11:03:38;40.77;;;24.23;;
3311;SDS011;1668;49.648;8.570;2023-02-10T11:06:06;44.40;;;26.00;;
3311;SDS011;1668;49.648;8.570;2023-02-10T11:08:36;42.00;;;25.30;;
3311;SDS011;1668;49.648;8.570;2023-02-10T11:11:09;38.43;;;25.23;;
3311;SDS011;1668;49.648;8.570;2023-02-10T11:13:38;42.13;;;23.80;;
3311;SDS011;1668;49.648;8.570;2023-02-10T11:16:08;44.00;;;25.47;;
3311;SDS011;1668;49.648;8.570;2023-02-10T11:18:37;44.87;;;25.40;;
3311;SDS011;1668;49.648;8.570;2023-02-10T11:21:05;43.13;;;26.67;;
3311;SDS011;1668;49.648;8.570;2023-02-10T11:23:36;43.73;;;26.33;;
3311;SDS011;1668;49.648;8.570;2023-02-10T11:26:18;40.97;;;25.20;;
3311;SDS011;1668;49.648;8.570;2023-02-10T11:28:47;43.93;;;26.60;;
3311;SDS011;1668;49.648;8.570;2023-02-10T11:31:28;39.80;;;25.20;;
3311;SDS011;1668;49.648;8.570;2023-02-10T11:33:58;48.00;;;27.50;;
3311;SDS011;1668;49.648;8.570;2023-02-10T11:36:30;41.33;;;24.30;;
3311;SDS011;1668;49.648;8.570;2023-02-10T11:39:00;44.27;;;24.87;;
3311;SDS011;1668;49.648;8.570;2023-02-10T11:41:32;40.13;;;24.43;;
3311;SDS011;1668;49.648;8.570;2023-02-10T11:44:00;40.60;;;25.47;;
3311;SDS011;1668;49.648;8.570;2023-02-10T11:46:28;44.33;;;24.17;;
3311;SDS011;1668;49.648;8.570;2023-02-10T11:48:57;38.73;;;23.43;;
3311;SDS011;1668;49.648;8.570;2023-02-10T11:51:26;43.13;;;24.60;;
3311;SDS011;1668;49.648;8.570;2023-02-10T11:53:53;39.60;;;25.40;;
3311;SDS011;1668;49.648;8.570;2023-02-10T11:56:23;43.33;;;25.80;;
3311;SDS011;1668;49.648;8.570;2023-02-10T11:59:15;35.97;;;24.43;;
3311;SDS011;1668;49.648;8.570;2023-02-10T12:01:50;41.83;;;26.23;;
3311;SDS011;1668;49.648;8.570;2023-02-10T12:04:25;44.50;;;26.80;;
3311;SDS011;1668;49.648;8.570;2023-02-10T12:07:15;40.03;;;24.73;;
3311;SDS011;1668;49.648;8.570;2023-02-10T12:09:52;40.50;;;24.83;;
3311;SDS011;1668;49.648;8.570;2023-02-10T12:12:26;39.90;;;24.30;;
3311;SDS011;1668;49.648;8.570;2023-02-10T12:15:04;40.10;;;24.57;;
3311;SDS011;1668;49.648;8.570;2023-02-10T12:17:40;34.43;;;23.47;;
3311;SDS011;1668;49.648;8.570;2023-02-10T12:20:24;39.27;;;22.77;;
3311;SDS011;1668;49.648;8.570;2023-02-10T12:23:03;38.43;;;23.90;;
3311;SDS011;1668;49.648;8.570;2023-02-10T12:25:38;38.67;;;24.90;;
3311;SDS011;1668;49.648;8.570;2023-02-10T12:28:14;40.27;;;24.00;;
3311;SDS011;1668;49.648;8.570;2023-02-10T12:30:54;37.87;;;23.03;;
3311;SDS011;1668;49.648;8.570;2023-02-10T12:33:31;33.00;;;22.53;;
3311;SDS011;1668;49.648;8.570;2023-02-10T12:36:11;39.70;;;23.77;;
3311;SDS011;1668;49.648;8.570;2023-02-10T12:38:50;39.17;;;24.67;;
3311;SDS011;1668;49.648;8.570;2023-02-10T12:41:29;37.10;;;23.60;;
3311;SDS011;1668;49.648;8.570;2023-02-10T12:44:10;38.90;;;23.40;;
3311;SDS011;1668;49.648;8.570;2023-02-10T12:46:52;38.73;;;23.70;;
3311;SDS011;1668;49.648;8.570;2023-02-10T12:49:29;42.13;;;25.87;;
3311;SDS011;1668;49.648;8.570;2023-02-10T12:52:07;39.33;;;23.80;;
3311;SDS011;1668;49.648;8.570;2023-02-10T12:54:40;38.23;;;24.60;;
3311;SDS011;1668;49.648;8.570;2023-02-10T12:57:16;39.30;;;24.17;;
3311;SDS011;1668;49.648;8.570;2023-02-10T12:59:52;37.57;;;23.93;;
3311;SDS011;1668;49.648;8.570;2023-02-10T13:02:26;39.90;;;25.03;;
3311;SDS011;1668;49.648;8.570;2023-02-10T13:04:58;40.07;;;24.20;;
3311;SDS011;1668;49.648;8.570;2023-02-10T13:07:32;44.53;;;27.77;;
3311;SDS011;1668;49.648;8.570;2023-02-10T13:10:09;37.70;;;25.27;;
3311;SDS011;1668;49.648;8.570;2023-02-10T13:12:45;39.03;;;25.70;;
3311;SDS011;1668;49.648;8.570;2023-02-10T13:15:15;41.43;;;25.03;;
3311;SDS011;1668;49.648;8.570;2023-02-10T13:17:49;37.47;;;24.13;;
3311;SDS011;1668;49.648;8.570;2023-02-10T13:20:20;37.73;;;24.47;;
3311;SDS011;1668;49.648;8.570;2023-02-10T13:22:53;45.30;;;26.93;;
3311;SDS011;1668;49.648;8.570;2023-02-10T13:25:30;38.50;;;23.73;;
3311;SDS011;1668;49.648;8.570;2023-02-10T13:28:06;38.47;;;25.23;;
3311;SDS011;1668;49.648;8.570;2023-02-10T13:30:46;37.17;;;25.00;;
3311;SDS011;1668;49.648;8.570;2023-02-10T13:33:32;37.07;;;24.00;;
3311;SDS011;1668;49.648;8.570;2023-02-10T13:36:10;36.90;;;23.47;;
3311;SDS011;1668;49.648;8.570;2023-02-10T13:38:41;41.73;;;25.77;;
3311;SDS011;1668;49.648;8.570;2023-02-10T13:41:20;39.33;;;25.37;;
3311;SDS011;1668;49.648;8.570;2023-02-10T13:44:16;38.43;;;24.77;;
3311;SDS011;1668;49.648;8.570;2023-02-10T13:46:51;39.57;;;25.30;;
3311;SDS011;1668;49.648;8.570;2023-02-10T13:49:23;36.13;;;23.57;;
3311;SDS011;1668;49.648;8.570;2023-02-10T13:51:50;40.43;;;25.70;;
3311;SDS011;1668;49.648;8.570;2023-02-10T13:54:27;46.63;;;25.17;;
3311;SDS011;1668;49.648;8.570;2023-02-10T13:56:56;40.07;;;25.20;;
3311;SDS011;1668;49.648;8.570;2023-02-10T13:59:26;40.10;;;25.53;;
3311;SDS011;1668;49.648;8.570;2023-02-10T14:02:02;40.37;;;24.70;;
3311;SDS011;1668;49.648;8.570;2023-02-10T14:04:40;44.57;;;26.57;;
3311;SDS011;1668;49.648;8.570;2023-02-10T14:07:14;38.47;;;26.20;;
3311;SDS011;1668;49.648;8.570;2023-02-10T14:09:43;40.50;;;26.77;;
3311;SDS011;1668;49.648;8.570;2023-02-10T14:12:23;39.60;;;25.70;;
3311;SDS011;1668;49.648;8.570;2023-02-10T14:14:51;46.83;;;27.10;;
3311;SDS011;1668;49.648;8.570;2023-02-10T14:17:19;40.57;;;25.20;;
3311;SDS011;1668;49.648;8.570;2023-02-10T14:19:51;39.50;;;25.17;;
3311;SDS011;1668;49.648;8.570;2023-02-10T14:22:22;40.77;;;26.83;;
3311;SDS011;1668;49.648;8.570;2023-02-10T14:24:50;39.13;;;25.60;;
3311;SDS011;1668;49.648;8.570;2023-02-10T14:27:20;38.53;;;24.97;;
3311;SDS011;1668;49.648;8.570;2023-02-10T14:29:49;36.57;;;24.27;;
3311;SDS011;1668;49.648;8.570;2023-02-10T14:32:18;39.83;;;26.33;;
3311;SDS011;1668;49.648;8.570;2023-02-10T14:34:54;40.27;;;26.13;;
3311;SDS011;1668;49.648;8.570;2023-02-10T14:37:22;45.03;;;25.00;;
3311;SDS011;1668;49.648;8.570;2023-02-10T14:39:50;38.60;;;25.07;;
3311;SDS011;1668;49.648;8.570;2023-02-10T14:42:18;34.50;;;24.17;;
3311;SDS011;1668;49.648;8.570;2023-02-10T14:44:47;40.13;;;25.20;;
3311;SDS011;1668;49.648;8.570;2023-02-10T14:47:16;38.70;;;23.60;;
3311;SDS011;1668;49.648;8.570;2023-02-10T14:49:47;39.23;;;23.73;;
3311;SDS011;1668;49.648;8.570;2023-02-10T14:52:23;34.27;;;22.70;;
3311;SDS011;1668;49.648;8.570;2023-02-10T14:54:51;37.50;;;24.50;;
3311;SDS011;1668;49.648;8.570;2023-02-10T14:57:19;36.27;;;23.40;;
3311;SDS011;1668;49.648;8.570;2023-02-10T14:59:54;38.33;;;24.07;;
3311;SDS011;1668;49.648;8.570;2023-02-10T15:02:23;37.77;;;23.60;;
3311;SDS011;1668;49.648;8.570;2023-02-10T15:04:51;35.20;;;23.17;;
3311;SDS011;1668;49.648;8.570;2023-02-10T15:07:23;38.33;;;22.50;;
3311;SDS011;1668;49.648;8.570;2023-02-10T15:09:52;34.50;;;21.83;;
3311;SDS011;1668;49.648;8.570;2023-02-10T15:12:22;39.70;;;22.70;;